Latest Weather Observations for Viewbank

IDV60801

Issued at 7:02 pm EDT Tuesday 6 December 2016 (issued every 30 minutes, with the page automatically refreshed every 10 minutes)

About weather observations | Map of weather stations | Latest weather observations for VIC | Other Formats
Station Details ID: 086068 Name: VIEWBANK Lat: -37.74 Lon: 145.10 Height: 66.1 m
Data from the previous 72 hours. | See also: Recent months at Viewbank
Date/Time
EDT
Temp
°C
App
Temp
°C
Dew
Point
°C
Rel
Hum
%
Delta-T
°C
Wind Press
QNH
hPa
Press
MSL
hPa
Rain since
9am
mm
Dir  Spd
km/h
Gust
km/h
Spd
kts
Gust
kts
06/07:00pm 18.6 14.5 8.8 53 5.1 SSW 20 30 11 16 1013.9 1013.7 -
06/06:30pm 19.5 15.5 8.2 48 5.9 SW 19 28 10 15 1013.6 1013.4 0.0
06/06:00pm 20.5 16.5 8.2 45 6.4 SW 19 28 10 15 1013.3 1013.1 0.0
06/05:30pm 21.0 17.0 8.3 44 6.7 SW 19 26 10 14 1013.0 1012.8 0.0
06/05:00pm 21.8 18.1 6.5 37 7.8 SW 15 26 8 14 1012.8 1012.6 0.0
06/04:30pm 21.8 19.2 7.6 40 7.4 WSW 11 17 6 9 1012.8 1012.6 0.0
06/04:00pm 22.5 19.8 10.3 46 6.7 SW 15 28 8 15 1013.0 1012.8 0.0
06/03:30pm 21.3 19.1 9.5 47 6.3 SSW 11 17 6 9 1013.2 1013.0 0.0
06/03:00pm 20.6 17.4 8.6 46 6.3 WSW 15 22 8 12 1013.4 1013.2 0.0
06/02:30pm 20.4 18.1 9.0 48 6.0 SW 11 20 6 11 1013.5 1013.3 0.0
06/02:00pm 20.3 19.1 11.5 57 4.9 SSE 9 13 5 7 1013.4 1013.2 0.0
06/01:30pm 20.5 19.1 10.9 54 5.3 SW 9 19 5 10 1013.7 1013.5 0.0
06/01:00pm 18.2 16.6 10.1 59 4.3 SW 9 17 5 9 1013.8 1013.6 0.0
06/12:30pm 18.1 16.6 10.7 62 4.0 SW 9 13 5 7 1014.0 1013.8 0.0
06/12:00pm 18.0 17.2 11.8 67 3.4 WSW 7 9 4 5 1014.0 1013.8 0.0
06/11:30am 17.0 16.9 10.8 67 3.3 N 2 7 1 4 1014.0 1013.8 0.0
06/11:00am 16.6 16.6 11.3 71 2.9 ESE 2 7 1 4 1013.9 1013.7 0.0
06/10:30am 16.4 15.5 10.7 69 3.0 N 6 11 3 6 1014.2 1014.0 0.0
06/10:00am 15.9 15.5 11.1 73 2.6 E 4 7 2 4 1014.5 1014.3 0.0
06/09:30am 15.1 15.3 10.7 75 2.3 CALM 0 7 0 4 1014.5 1014.3 0.0
06/09:00am 14.5 14.7 10.5 77 2.1 CALM 0 4 0 2 1014.4 1014.2 0.0
06/08:30am 14.0 13.1 10.6 80 1.8 E 6 7 3 4 1014.2 1014.0 -
06/08:00am 13.6 13.9 11.0 84 1.4 CALM 0 0 0 0 1014.0 1013.8 -
06/07:30am 12.7 13.1 11.1 90 0.8 CALM 0 0 0 0 1014.0 1013.8 -
06/07:00am 12.4 12.7 11.0 91 0.7 CALM 0 6 0 3 1013.8 1013.6 -
06/06:30am 11.6 10.4 9.7 88 1.0 WSW 6 7 3 4 1013.5 1013.3 -
06/06:00am 11.8 11.5 8.8 82 1.5 CALM 0 0 0 0 1012.5 1012.3 -
06/05:30am 12.0 11.0 8.8 81 1.6 WSW 4 6 2 3 1012.6 1012.4 -
06/05:00am 12.0 11.7 8.5 79 1.7 CALM 0 0 0 0 1011.9 1011.8 -
06/04:30am 12.1 10.8 9.1 82 1.5 WSW 6 7 3 4 1012.0 1011.9 0.0
06/04:00am 12.3 10.9 8.8 79 1.8 WSW 6 7 3 4 1011.8 1011.7 0.0
06/03:30am 12.5 11.1 8.8 78 1.9 SW 6 7 3 4 1011.4 1011.3 0.0
06/03:00am 12.6 11.1 9.1 79 1.8 SW 7 9 4 5 1011.5 1011.4 0.0
06/02:30am 13.0 11.5 8.5 74 2.2 SSW 6 9 3 5 1012.4 1012.2 0.0
06/02:00am 13.2 11.2 8.7 74 2.3 SSW 9 13 5 7 1013.0 1012.8 0.0
06/01:30am 13.2 11.6 8.7 74 2.3 SSW 7 13 4 7 1012.7 1012.5 0.0
06/01:00am 13.5 11.9 8.8 73 2.4 SSW 7 15 4 8 1013.2 1013.0 0.0
06/12:30am 13.3 11.8 9.2 76 2.1 SSW 7 13 4 7 1013.1 1012.9 0.0
06/12:00am 13.5 11.2 9.0 74 2.3 SSW 11 19 6 10 1013.5 1013.3 0.0
 
Date/Time
EDT
Temp
°C
App
Temp
°C
Dew
Point
°C
Rel
Hum
%
Delta-T
°C
Wind Press
QNH
hPa
Press
MSL
hPa
Rain since
9am
mm
Dir  Spd
km/h
Gust
km/h
Spd
kts
Gust
kts
05/11:30pm 13.8 12.0 9.3 74 2.3 SE 9 17 5 9 1013.7 1013.5 0.0
05/11:00pm 13.9 12.7 9.7 76 2.2 S 6 13 3 7 1014.2 1014.0 0.0
05/10:30pm 14.2 12.1 9.6 74 2.4 S 11 19 6 10 1014.5 1014.3 0.0
05/10:00pm 14.6 11.9 10.2 75 2.3 SSW 15 24 8 13 1015.3 1015.1 0.0
05/09:30pm 15.0 12.8 10.8 76 2.2 S 13 19 7 10 1014.6 1014.4 0.0
05/09:00pm 15.4 14.1 11.2 76 2.3 S 9 15 5 8 1013.9 1013.7 0.0
05/08:30pm 16.0 14.2 10.7 71 2.8 S 11 19 6 10 1013.2 1013.0 0.0
05/08:00pm 16.6 15.3 11.3 71 2.9 S 9 15 5 8 1013.4 1013.2 0.0
05/07:30pm 17.1 15.2 11.8 71 2.9 SW 13 22 7 12 1013.2 1013.0 0.0
05/07:00pm 17.6 15.6 11.4 67 3.4 SSW 13 20 7 11 1013.0 1012.8 0.0
05/06:30pm 18.4 15.4 10.8 61 4.1 SSW 17 26 9 14 1012.4 1012.2 0.0
05/06:00pm 19.5 16.2 9.7 53 5.2 SSW 17 26 9 14 1012.0 1011.9 0.0
05/05:30pm 19.7 16.8 9.6 52 5.4 SSW 15 24 8 13 1011.8 1011.7 0.0
05/05:00pm 20.2 17.7 9.7 51 5.6 SSW 13 20 7 11 1011.7 1011.6 0.0
05/04:30pm 20.7 17.8 9.6 49 6.0 SSW 15 24 8 13 1011.7 1011.6 0.0
05/04:00pm 22.0 19.1 9.5 45 6.7 SW 15 22 8 12 1011.9 1011.8 0.0
05/03:30pm 22.2 19.8 10.0 46 6.6 SSW 13 22 7 12 1011.3 1011.2 0.0
05/03:00pm 21.9 19.8 11.0 50 6.0 SW 13 22 7 12 1011.4 1011.3 0.0
05/02:30pm 22.0 19.3 8.9 43 7.0 SW 13 24 7 13 1011.7 1011.6 0.0
05/02:00pm 22.2 20.2 10.0 46 6.6 WSW 11 20 6 11 1011.9 1011.8 0.0
05/01:30pm 21.4 20.1 11.1 52 5.7 SSW 9 19 5 10 1012.0 1011.9 0.0
05/01:00pm 20.6 18.5 11.0 54 5.3 WSW 13 20 7 11 1011.9 1011.8 0.0
05/12:30pm 19.9 17.2 11.7 59 4.6 SSW 17 26 9 14 1012.0 1011.9 0.0
05/12:00pm 19.4 17.0 10.1 55 5.0 SW 13 20 7 11 1012.4 1012.2 0.0
05/11:30am 18.9 17.0 11.9 64 3.9 SW 13 20 7 11 1012.5 1012.3 0.0
05/11:00am 18.0 15.9 11.3 65 3.7 SW 13 19 7 10 1012.5 1012.3 0.0
05/10:30am 17.4 14.9 11.2 67 3.4 SW 15 22 8 12 1012.4 1012.2 0.0
05/10:00am 17.0 14.4 10.8 67 3.3 SW 15 24 8 13 1012.1 1012.0 0.0
05/09:30am 17.3 15.5 12.2 72 2.8 SW 13 20 7 11 1012.0 1011.9 0.0
05/09:00am 16.8 14.5 11.7 72 2.8 WSW 15 22 8 12 1012.1 1012.0 5.0
05/08:30am 16.7 14.7 11.4 71 2.9 SW 13 22 7 12 1011.4 1011.3 -
05/08:00am 16.7 14.4 10.3 66 3.4 WSW 13 22 7 12 1010.8 1010.7 -
05/07:30am 17.0 14.9 11.1 68 3.2 SW 13 22 7 12 1010.2 1010.1 -
05/07:00am 17.1 15.1 14.0 82 1.8 WSW 17 24 9 13 1009.3 1009.2 -
05/06:30am 18.1 16.4 15.7 86 1.4 SW 19 33 10 18 1008.7 1008.6 -
05/06:00am 20.9 19.4 15.2 70 3.4 W 17 33 9 18 1007.4 1007.2 -
05/05:30am 22.0 21.0 16.5 71 3.3 NNW 17 24 9 13 1006.4 - 5.2
05/05:00am 21.9 22.3 16.4 71 3.4 NW 9 17 5 9 1005.9 1005.7 5.2
05/04:30am 22.2 21.0 16.2 69 3.6 NNW 17 24 9 13 1005.1 1004.9 5.2
05/04:00am 22.3 21.1 16.1 68 3.8 N 17 24 9 13 1004.4 1004.2 5.2
05/03:30am 22.0 21.2 16.1 69 3.6 N 15 26 8 14 1004.2 1004.0 5.2
05/03:00am 22.3 21.3 15.6 66 4.0 N 15 26 8 14 1004.2 1004.0 5.2
05/02:30am 23.2 21.2 15.5 62 4.6 N 20 37 11 20 1004.1 1003.9 5.2
05/02:00am 23.4 20.7 15.5 61 4.8 N 24 41 13 22 1004.0 1003.8 5.2
05/01:30am 22.8 21.6 16.1 66 4.1 NNE 17 43 9 23 1003.9 1003.7 5.2
05/01:00am 20.7 22.0 17.5 82 2.0 NNE 7 15 4 8 1004.6 1004.4 5.2
05/12:30am 20.5 21.7 17.3 82 2.0 NE 7 11 4 6 1005.0 1004.8 5.2
05/12:00am 21.1 22.0 17.5 80 2.2 NNE 9 15 5 8 1005.3 1005.1 5.2
 
Date/Time
EDT
Temp
°C
App
Temp
°C
Dew
Point
°C
Rel
Hum
%
Delta-T
°C
Wind Press
QNH
hPa
Press
MSL
hPa
Rain since
9am
mm
Dir  Spd
km/h
Gust
km/h
Spd
kts
Gust
kts
04/11:30pm 20.3 21.9 18.2 88 1.3 ENE 7 13 4 7 1005.1 1004.9 5.2
04/11:00pm 20.1 21.8 18.6 91 0.9 ENE 7 13 4 7 1005.5 1005.3 5.2
04/10:30pm 19.5 21.3 19.5 100 0.0 NE 9 17 5 9 1005.8 1005.6 5.2
04/10:00pm 19.2 21.2 19.2 100 0.0 ENE 7 11 4 6 1006.2 1006.0 5.2
04/09:30pm 19.3 21.0 19.3 100 0.0 E 9 13 5 7 1006.4 1006.2 5.2
04/09:00pm 19.2 21.2 19.2 100 0.0 ENE 7 15 4 8 1006.9 1006.7 5.2
04/08:30pm 19.4 21.5 19.4 100 0.0 E 7 11 4 6 1007.4 1007.2 4.4
04/08:00pm 20.3 21.7 19.6 96 0.4 NE 11 17 6 9 1008.1 1007.9 1.2
04/07:30pm 21.7 22.8 18.1 80 2.2 NNE 9 15 5 8 1007.6 1007.4 0.2
04/07:00pm 22.9 23.2 17.1 70 3.6 NNW 11 15 6 8 1007.7 1007.5 0.2
04/06:30pm 24.6 22.7 15.2 55 5.7 NW 19 30 10 16 1007.7 1007.5 0.0
04/06:00pm 27.5 24.9 13.8 43 8.2 NW 20 33 11 18 1006.8 1006.6 0.0
04/05:30pm 28.8 25.7 12.2 35 9.7 N 20 39 11 21 1005.9 1005.7 0.0
04/05:00pm 29.7 28.9 11.2 31 10.7 ENE 6 43 3 23 1005.7 1005.5 0.0
04/04:30pm 30.1 29.9 13.0 35 10.2 ENE 6 9 3 5 1005.0 1004.8 0.0
04/04:00pm 30.4 29.4 12.3 33 10.7 ENE 9 15 5 8 1005.4 1005.2 0.0
04/03:30pm 31.0 29.6 10.9 29 11.6 NNE 9 22 5 12 1005.8 1005.6 0.0
04/03:00pm 30.5 28.5 11.5 31 11.1 NNE 13 24 7 13 1006.4 1006.2 0.0
04/02:30pm 30.3 27.1 9.8 28 11.6 N 17 28 9 15 1006.8 1006.6 0.0
04/02:00pm 30.6 27.6 10.5 29 11.5 N 17 30 9 16 1007.4 1007.2 0.0
04/01:30pm 31.4 26.7 10.7 28 11.9 N 26 39 14 21 1007.3 1007.1 0.0
04/01:06pm 30.4 25.1 9.8 28 11.7 N 28 46 15 25 1007.5 1007.3 0.0
04/01:00pm 30.5 26.1 10.5 29 11.5 N 24 44 13 24 1007.6 1007.4 0.0
04/12:30pm 29.9 25.9 8.9 27 11.7 N 20 39 11 21 1008.0 1007.8 0.0
04/12:00pm 29.1 25.7 9.3 29 11.1 NNE 17 30 9 16 1008.2 1008.0 0.0
04/11:30am 29.0 27.8 11.6 34 10.1 NE 9 17 5 9 1008.6 1008.5 0.0
04/11:00am 25.8 26.0 14.3 49 6.9 SE 6 13 3 7 1009.0 1008.9 0.0
04/10:30am 23.8 24.2 13.6 52 6.0 SSE 4 9 2 5 1009.2 1009.1 0.0
04/10:00am 21.7 21.6 12.0 54 5.5 SE 4 7 2 4 1009.7 1009.6 0.0
04/09:30am 19.1 18.3 11.7 62 4.1 ESE 7 13 4 7 1009.9 1009.8 0.0
04/09:00am 17.1 16.4 12.0 72 2.8 ESE 7 11 4 6 1010.2 1010.1 0.0
04/08:30am 15.6 16.4 12.7 83 1.6 CALM 0 7 0 4 1010.7 1010.6 0.0
04/08:00am 13.8 13.8 12.5 92 0.7 E 4 7 2 4 1010.6 1010.5 0.0
04/07:30am 12.0 11.2 11.8 99 0.1 E 7 9 4 5 1010.6 1010.5 0.0
04/07:00am 11.1 9.7 10.9 99 0.1 ENE 9 11 5 6 1010.8 1010.7 0.0
04/06:30am 10.4 9.7 10.2 99 0.1 NE 4 7 2 4 1010.7 1010.6 0.0
04/06:00am 10.6 10.8 10.4 99 0.1 CALM 0 7 0 4 1011.2 1011.1 0.0
04/05:30am 10.2 8.9 10.1 99 0.1 ENE 7 9 4 5 1011.0 1010.9 0.0
04/05:00am 10.7 9.6 10.5 99 0.1 NE 7 9 4 5 1011.2 1011.1 0.0
04/04:30am 11.2 11.2 11.0 99 0.1 NNE 2 6 1 3 1011.3 1011.2 0.0
04/04:00am 11.5 11.5 11.3 99 0.1 E 2 6 1 3 1011.2 1011.1 0.0
04/03:30am 12.1 12.6 11.5 96 0.3 CALM 0 2 0 1 1011.3 1011.2 0.0
04/03:00am 12.4 12.5 11.5 94 0.5 ENE 2 7 1 4 1011.5 1011.4 0.0
04/02:30am 12.9 13.5 11.8 93 0.6 CALM 0 0 0 0 1011.9 1011.8 0.0
04/02:00am 13.3 12.8 11.9 91 0.8 ENE 6 9 3 5 1012.3 1012.1 0.0
04/01:30am 13.6 14.2 12.0 90 0.9 CALM 0 6 0 3 1012.4 1012.2 0.0
04/01:00am 14.2 13.7 11.9 86 1.2 NE 6 7 3 4 1012.8 1012.6 0.0
04/12:30am 14.7 15.3 11.8 83 1.6 CALM 0 0 0 0 1013.1 1012.9 0.0
04/12:00am 15.5 16.0 11.7 78 2.1 CALM 0 0 0 0 1013.3 1013.1 0.0
 
Date/Time
EDT
Temp
°C
App
Temp
°C
Dew
Point
°C
Rel
Hum
%
Delta-T
°C
Wind Press
QNH
hPa
Press
MSL
hPa
Rain since
9am
mm
Dir  Spd
km/h
Gust
km/h
Spd
kts
Gust
kts
03/11:30pm 15.9 15.3 11.7 76 2.3 SW 6 9 3 5 1013.6 1013.4 0.0
03/11:00pm 16.0 15.4 11.8 76 2.3 WSW 6 7 3 4 1013.8 1013.6 0.0
03/10:30pm 16.8 16.2 11.7 72 2.8 SSW 6 7 3 4 1013.7 1013.5 0.0
03/10:00pm 17.2 17.7 11.7 70 3.0 CALM 0 0 0 0 1013.7 1013.5 0.0
03/09:30pm 17.9 17.2 11.5 66 3.5 SW 6 7 3 4 1013.6 1013.4 0.0
03/09:00pm 18.6 18.5 10.9 61 4.2 SSW 2 7 1 4 1013.4 1013.2 0.0
03/08:30pm 19.3 18.2 10.8 58 4.6 SSE 7 15 4 8 1013.3 1013.1 0.0
03/08:00pm 20.5 19.0 10.6 53 5.4 S 9 17 5 9 1013.3 1013.1 0.0
03/07:30pm 22.1 20.4 9.9 46 6.6 SSE 9 22 5 12 1013.0 1012.8 0.0

Other Formats:

Comma delimited format used in spreadsheet applications
http://www.bom.gov.au/fwo/IDV60801/IDV60801.95874.axf

JavaScript Object Notation format (JSON) in row-major order
http://www.bom.gov.au/fwo/IDV60801/IDV60801.95874.json